Time;durP1;ratioP1;P1;durP2;ratioP2;P2;SDS_P1;SDS_P2;PMS_P1;PMS_P2;Temp;Humidity;BMP_temperature;BMP_pressure;BME280_temperature;BME280_humidity;BME280_pressure;Samples;Min_cycle;Max_cycle;Signal;HPM_P1;HPM_P2
2021/07/04 00:02:57;;;;;;;9.63;8.07;;;;;;;17.29;88.52;101145.78;10542817;28;20044;-59
2021/07/04 00:08:00;;;;;;;5.40;4.90;;;;;;;17.14;88.76;101153.13;10542725;28;20040;-59
2021/07/04 00:13:04;;;;;;;8.35;5.50;;;;;;;17.15;88.73;101154.00;10542343;28;20056;-59
2021/07/04 00:18:14;;;;;;;6.13;3.60;;;;;;;17.05;88.00;101153.88;10541795;28;20130;-59
2021/07/04 00:23:17;;;;;;;7.85;4.40;;;;;;;17.06;88.93;101143.19;10541101;28;20040;-59
2021/07/04 00:28:22;;;;;;;6.25;5.30;;;;;;;17.15;88.90;101130.19;10541568;28;20048;-59
2021/07/04 00:33:24;;;;;;;3.65;3.35;;;;;;;17.27;88.56;101137.97;10541284;28;20055;-59
2021/07/04 00:38:27;;;;;;;6.90;4.82;;;;;;;17.00;89.18;101143.66;10540057;28;20040;-59
2021/07/04 00:43:30;;;;;;;8.73;4.05;;;;;;;16.87;89.12;101130.56;10541543;28;20044;-59
2021/07/04 00:48:33;;;;;;;11.75;7.68;;;;;;;17.01;89.33;101125.97;10540927;28;20051;-59
2021/07/04 00:53:36;;;;;;;16.00;6.13;;;;;;;17.05;89.75;101127.44;10540750;28;20055;-59
2021/07/04 00:58:38;;;;;;;7.40;5.18;;;;;;;17.10;88.90;101127.91;10539253;28;20052;-59
2021/07/04 01:03:40;;;;;;;10.50;5.13;;;;;;;17.09;89.38;101126.22;10540750;28;20492;-59
2021/07/04 01:08:43;;;;;;;10.82;6.90;;;;;;;17.14;88.92;101107.31;10540235;28;20495;-59
2021/07/04 01:13:45;;;;;;;8.02;7.22;;;;;;;17.06;89.15;101114.09;10540764;28;20050;-59
2021/07/04 01:18:48;;;;;;;14.93;11.20;;;;;;;16.95;89.75;101111.44;10521829;28;20048;-59
2021/07/04 01:23:50;;;;;;;19.08;14.07;;;;;;;16.96;90.22;101107.81;10539759;28;20484;-59
2021/07/04 01:28:53;;;;;;;13.10;11.38;;;;;;;16.98;90.14;101097.13;10540839;28;20048;-59
2021/07/04 01:33:55;;;;;;;15.48;13.68;;;;;;;16.91;89.96;101091.47;10554267;28;20052;-59
2021/07/04 01:38:57;;;;;;;13.15;11.63;;;;;;;17.12;88.60;101075.69;10553595;28;20040;-59
2021/07/04 01:44:00;;;;;;;22.42;17.77;;;;;;;16.89;90.05;101067.81;10553261;28;20052;-59
2021/07/04 01:49:03;;;;;;;17.05;15.35;;;;;;;16.96;89.02;101065.50;10553323;28;20044;-59
2021/07/04 01:54:05;;;;;;;15.20;13.30;;;;;;;17.06;88.53;101070.91;10553206;28;20052;-59
2021/07/04 01:59:07;;;;;;;15.57;13.20;;;;;;;17.03;88.49;101058.78;10553260;28;20040;-59
2021/07/04 02:04:10;;;;;;;26.83;18.75;;;;;;;16.86;89.75;101054.84;10553030;28;20048;-59
2021/07/04 02:09:12;;;;;;;17.42;14.52;;;;;;;17.02;88.96;101053.59;10553076;28;20143;-59
2021/07/04 02:14:14;;;;;;;16.02;13.05;;;;;;;17.07;88.33;101057.56;10553094;28;20052;-59
2021/07/04 02:19:17;;;;;;;18.30;14.30;;;;;;;16.89;89.52;101054.59;10552626;28;20059;-59
2021/07/04 02:24:19;;;;;;;15.05;13.43;;;;;;;16.78;89.47;101054.56;10552684;28;20044;-59
2021/07/04 02:29:22;;;;;;;17.15;12.98;;;;;;;16.81;89.54;101053.47;10552719;28;20173;-59
2021/07/04 02:34:27;;;;;;;24.98;17.13;;;;;;;16.72;89.15;101049.75;10551177;28;20508;-59
2021/07/04 02:39:29;;;;;;;22.20;17.17;;;;;;;16.51;89.70;101049.69;10551175;28;20059;-59
2021/07/04 02:44:31;;;;;;;14.65;12.55;;;;;;;16.51;89.31;101057.59;10543345;28;20051;-60
2021/07/04 02:49:34;;;;;;;26.98;16.17;;;;;;;16.63;89.79;101058.44;10545945;28;20044;-58
2021/07/04 02:54:36;;;;;;;15.27;12.77;;;;;;;16.79;88.74;101055.41;10545149;28;20058;-59
2021/07/04 02:59:39;;;;;;;14.77;12.10;;;;;;;16.78;89.08;101053.72;10543942;28;20400;-59
2021/07/04 03:04:41;;;;;;;14.90;12.75;;;;;;;16.72;88.75;101066.47;10545027;28;20067;-59
2021/07/04 03:09:44;;;;;;;33.17;20.08;;;;;;;16.59;89.70;101060.47;10544673;28;20056;-59
2021/07/04 03:14:46;;;;;;;17.33;14.57;;;;;;;16.69;89.22;101064.09;10544996;28;20063;-58
2021/07/04 03:19:50;;;;;;;20.60;15.75;;;;;;;16.84;89.23;101074.38;10545176;28;20051;-59
2021/07/04 03:24:52;;;;;;;16.23;12.88;;;;;;;16.92;89.11;101064.06;10544094;28;20055;-58
2021/07/04 03:29:54;;;;;;;18.13;14.95;;;;;;;16.74;89.33;101063.69;10543969;28;20063;-59
2021/07/04 03:34:57;;;;;;;16.05;13.93;;;;;;;17.04;88.19;101063.09;10543791;28;20055;-58
2021/07/04 03:39:59;;;;;;;19.77;14.27;;;;;;;16.96;89.00;101068.16;10544301;28;20047;-58
2021/07/04 03:45:02;;;;;;;17.88;15.95;;;;;;;16.92;89.27;101063.25;10542448;28;20048;-59
2021/07/04 03:50:05;;;;;;;18.13;15.50;;;;;;;16.94;88.68;101062.16;10542163;28;20044;-59
2021/07/04 03:55:08;;;;;;;20.65;16.20;;;;;;;17.06;88.35;101068.25;10542346;28;20091;-59
2021/07/04 04:00:11;;;;;;;23.70;18.13;;;;;;;17.01;88.92;101075.72;10542756;28;20043;-59
2021/07/04 04:05:14;;;;;;;37.38;23.63;;;;;;;16.93;89.40;101073.72;10542604;28;20044;-58
2021/07/04 04:10:17;;;;;;;19.20;15.68;;;;;;;16.91;89.24;101065.03;10541147;28;20487;-59
2021/07/04 04:15:20;;;;;;;30.23;20.77;;;;;;;17.06;89.11;101063.81;10542462;28;20052;-58
2021/07/04 04:20:22;;;;;;;23.67;17.40;;;;;;;17.09;88.59;101070.66;10542211;28;20044;-59
2021/07/04 04:25:24;;;;;;;27.75;21.60;;;;;;;17.11;89.23;101066.06;10541737;28;20055;-59
2021/07/04 04:30:27;;;;;;;30.75;22.58;;;;;;;16.94;88.84;101067.44;10541616;28;20054;-58
2021/07/04 04:35:29;;;;;;;23.02;20.40;;;;;;;17.12;88.82;101066.94;10541570;28;20048;-59
2021/07/04 04:40:32;;;;;;;22.35;18.73;;;;;;;17.43;87.65;101066.13;10541527;28;20044;-58
2021/07/04 04:45:34;;;;;;;68.78;33.58;;;;;;;17.24;88.87;101055.34;10541332;28;20048;-58
2021/07/04 04:50:36;;;;;;;24.80;19.75;;;;;;;17.21;88.77;101050.31;10541006;28;20040;-59
2021/07/04 04:55:39;;;;;;;26.00;21.02;;;;;;;17.25;88.42;101041.16;10541093;28;20044;-59
2021/07/04 05:00:41;;;;;;;28.00;20.63;;;;;;;17.21;88.37;101045.00;10540903;28;20055;-59
2021/07/04 05:05:44;;;;;;;22.90;19.33;;;;;;;17.12;88.29;101036.03;10539674;28;20048;-58
2021/07/04 05:10:46;;;;;;;22.73;19.05;;;;;;;17.15;88.01;101034.94;10540436;28;20051;-58
2021/07/04 05:15:48;;;;;;;17.40;15.63;;;;;;;17.28;86.65;101032.94;10540561;28;20052;-58
2021/07/04 05:20:51;;;;;;;63.92;34.42;;;;;;;16.89;89.24;101041.38;10540109;28;20048;-59
2021/07/04 05:25:56;;;;;;;29.60;19.67;;;;;;;16.96;89.39;101035.56;10540113;28;20527;-59
2021/07/04 05:30:58;;;;;;;22.83;20.33;;;;;;;17.07;88.45;101033.75;10539621;28;20047;-59
2021/07/04 05:36:01;;;;;;;32.30;22.20;;;;;;;17.14;89.26;101042.03;10539738;28;20055;-59
2021/07/04 05:41:03;;;;;;;24.30;19.98;;;;;;;17.19;88.93;101041.66;10539569;28;20542;-59
2021/07/04 05:46:06;;;;;;;21.20;18.80;;;;;;;17.20;89.54;101032.75;10539437;28;20052;-60
2021/07/04 05:51:09;;;;;;;37.47;27.02;;;;;;;17.38;89.66;101028.59;10538085;28;20539;-58
2021/07/04 05:56:11;;;;;;;26.35;20.88;;;;;;;17.56;89.48;101039.44;10537779;28;20412;-59
2021/07/04 06:01:14;;;;;;;46.10;29.00;;;;;;;17.78;89.02;101027.91;10538248;28;20040;-59
2021/07/04 06:06:16;;;;;;;24.25;21.08;;;;;;;18.05;87.39;101015.97;10537933;28;20131;-58
2021/07/04 06:11:18;;;;;;;24.25;20.83;;;;;;;18.15;88.18;101022.16;10539848;28;20051;-58
2021/07/04 06:16:21;;;;;;;28.10;25.05;;;;;;;18.78;86.59;101018.50;10542150;28;20048;-59
2021/07/04 06:21:25;;;;;;;33.88;27.90;;;;;;;18.59;87.03;101015.78;10546919;28;20048;-59
2021/07/04 06:26:27;;;;;;;34.90;27.95;;;;;;;18.87;85.93;101012.38;10546034;28;20047;-59
2021/07/04 06:31:29;;;;;;;32.63;27.42;;;;;;;18.86;85.90;101015.16;10545958;28;20044;-59
2021/07/04 06:36:32;;;;;;;35.08;29.80;;;;;;;19.02;85.42;101012.84;10545734;28;20055;-59
2021/07/04 06:41:34;;;;;;;26.00;23.33;;;;;;;19.07;83.99;101005.28;10545883;28;20048;-59
2021/07/04 06:46:37;;;;;;;27.08;24.08;;;;;;;19.09;82.21;101005.16;10545680;28;20071;-59
2021/07/04 06:51:39;;;;;;;33.17;28.25;;;;;;;19.09;84.67;101003.34;10545611;28;20044;-59
2021/07/04 06:56:41;;;;;;;31.25;27.33;;;;;;;19.12;82.99;101004.88;10545484;28;20052;-58
2021/07/04 07:01:44;;;;;;;28.17;25.50;;;;;;;19.11;84.85;101000.53;10544066;28;20048;-59
2021/07/04 07:06:46;;;;;;;32.72;28.52;;;;;;;18.77;86.55;100997.41;10545644;28;20056;-59
2021/07/04 07:11:48;;;;;;;28.95;25.90;;;;;;;18.62;85.19;101003.09;10544572;28;20063;-59
2021/07/04 07:16:51;;;;;;;30.02;26.90;;;;;;;18.78;85.94;101001.72;10544049;28;20048;-58
2021/07/04 07:21:53;;;;;;;31.30;28.05;;;;;;;18.92;85.17;101004.03;10544716;28;20044;-58
2021/07/04 07:26:55;;;;;;;32.05;27.35;;;;;;;19.27;84.11;100994.69;10543532;28;20044;-59
2021/07/04 07:31:58;;;;;;;32.20;26.48;;;;;;;20.07;82.34;100989.94;10544023;28;20055;-58
2021/07/04 07:37:00;;;;;;;34.35;28.50;;;;;;;20.06;80.31;100982.97;10543716;28;20047;-59
2021/07/04 07:42:03;;;;;;;31.38;28.02;;;;;;;19.90;82.61;100986.22;10543560;28;20040;-58
2021/07/04 07:47:06;;;;;;;37.47;29.45;;;;;;;20.04;82.87;100990.25;10542832;28;20048;-58
2021/07/04 07:52:08;;;;;;;33.83;28.70;;;;;;;19.81;79.98;100985.28;10541825;28;20444;-59
2021/07/04 07:57:11;;;;;;;31.95;26.90;;;;;;;19.62;81.16;100982.66;10542040;28;20044;-58
2021/07/04 08:02:13;;;;;;;35.65;28.73;;;;;;;19.98;82.25;100990.84;10542908;28;20051;-59
2021/07/04 08:07:16;;;;;;;36.83;29.92;;;;;;;19.85;83.11;100997.31;10541984;28;20126;-59
2021/07/04 08:12:18;;;;;;;44.72;32.97;;;;;;;19.63;82.85;100997.59;10541457;28;20052;-58
2021/07/04 08:17:21;;;;;;;44.30;35.00;;;;;;;19.50;83.99;100987.25;10542129;28;20373;-60
2021/07/04 08:22:24;;;;;;;55.90;39.38;;;;;;;19.51;84.11;100980.16;10542234;28;20052;-59
2021/07/04 08:27:26;;;;;;;40.92;33.22;;;;;;;19.67;81.75;100978.56;10542219;28;20161;-58
2021/07/04 08:32:28;;;;;;;50.42;36.80;;;;;;;19.40;84.59;100970.50;10541750;28;20059;-59
2021/07/04 08:37:31;;;;;;;46.40;34.97;;;;;;;19.18;84.22;100971.63;10541419;28;20048;-58
2021/07/04 08:42:34;;;;;;;49.38;35.78;;;;;;;19.22;86.38;100968.56;10539642;28;20048;-59
2021/07/04 08:47:36;;;;;;;53.42;36.42;;;;;;;19.43;85.18;100963.13;10540908;28;20044;-59
2021/07/04 08:52:40;;;;;;;55.20;37.33;;;;;;;19.34;84.95;100961.28;10540883;28;20054;-58
2021/07/04 08:57:42;;;;;;;52.55;37.40;;;;;;;19.39;85.56;100976.81;10541001;28;20050;-58
2021/07/04 09:02:45;;;;;;;47.25;34.83;;;;;;;19.47;85.09;100972.47;10540418;28;20479;-58
2021/07/04 09:07:50;;;;;;;45.45;34.38;;;;;;;19.43;85.73;100965.78;10540466;28;20059;-58
2021/07/04 09:12:54;;;;;;;55.08;39.88;;;;;;;19.44;88.79;100962.13;10540064;28;20084;-59
2021/07/04 09:17:57;;;;;;;47.33;36.75;;;;;;;19.37;85.32;100960.19;10540448;28;20376;-58
2021/07/04 09:23:01;;;;;;;50.55;37.80;;;;;;;19.55;84.77;100949.66;10540154;28;20048;-59
2021/07/04 09:28:13;;;;;;;44.25;34.35;;;;;;;19.67;82.54;100959.16;10539559;28;20059;-59
2021/07/04 09:33:18;;;;;;;54.33;36.92;;;;;;;19.52;85.72;100956.09;10539539;28;20056;-59
2021/07/04 09:38:21;;;;;;;48.58;37.83;;;;;;;19.76;84.86;100953.00;10539284;28;20043;-59
2021/07/04 09:43:23;;;;;;;47.45;35.55;;;;;;;19.88;84.36;100940.38;10540165;28;20048;-59
2021/07/04 09:48:28;;;;;;;48.05;36.47;;;;;;;20.14;81.61;100926.41;10538275;28;20051;-59
2021/07/04 09:53:33;;;;;;;42.72;35.38;;;;;;;19.90;79.20;100933.09;10546402;28;20055;-58
2021/07/04 09:58:37;;;;;;;46.03;37.53;;;;;;;20.46;80.17;100923.31;10547652;28;20044;-59
2021/07/04 10:03:43;;;;;;;47.35;38.13;;;;;;;20.34;80.81;100921.84;10546172;28;20048;-58
2021/07/04 10:08:45;;;;;;;43.90;34.35;;;;;;;20.15;80.51;100914.81;10547033;28;20380;-59
2021/07/04 10:13:49;;;;;;;43.67;35.45;;;;;;;20.16;81.18;100919.16;10546399;28;20416;-59
2021/07/04 10:18:52;;;;;;;40.70;33.13;;;;;;;20.34;79.55;100913.84;10546609;28;20157;-59
2021/07/04 10:23:59;;;;;;;45.50;36.10;;;;;;;20.70;82.92;100898.81;10544967;28;20048;-59
2021/07/04 10:29:04;;;;;;;40.15;32.00;;;;;;;21.41;79.20;100889.06;10546581;28;20392;-59
2021/07/04 10:34:11;;;;;;;38.75;29.75;;;;;;;21.59;80.32;100889.03;10546224;28;20056;-60
2021/07/04 10:39:13;;;;;;;30.35;25.98;;;;;;;21.26;76.14;100875.47;10546662;28;20044;-59
2021/07/04 10:44:16;;;;;;;26.83;23.52;;;;;;;23.55;72.92;100871.72;10545937;28;20050;-59
2021/07/04 10:49:23;;;;;;;14.70;13.07;;;;;;;22.95;71.32;100859.59;10545749;28;20044;-59
2021/07/04 10:54:44;;;;;;;18.85;16.95;;;;;;;23.68;74.10;100859.63;10545501;28;20483;-59
2021/07/04 11:00:10;;;;;;;16.45;14.80;;;;;;;23.81;67.13;100846.56;10545509;28;20048;-59
2021/07/04 11:05:12;;;;;;;12.85;11.05;;;;;;;22.98;67.67;100834.38;10534726;28;20507;-60
2021/07/04 11:10:15;;;;;;;15.50;14.00;;;;;;;24.00;72.07;100815.91;10543797;28;20044;-59
2021/07/04 11:15:21;;;;;;;10.60;9.52;;;;;;;24.55;64.69;100802.53;10544695;28;20060;-60
2021/07/04 11:20:44;;;;;;;10.73;9.73;;;;;;;25.80;63.57;100801.06;10558516;28;20449;-59
2021/07/04 11:25:53;;;;;;;11.80;10.05;;;;;;;26.14;64.55;100787.00;10583493;28;20048;-59
2021/07/04 11:31:02;;;;;;;11.95;10.85;;;;;;;25.46;61.25;100787.25;10584295;28;20054;-59
2021/07/04 11:36:08;;;;;;;10.98;9.98;;;;;;;25.34;60.32;100780.69;10583713;28;20051;-59
2021/07/04 11:41:12;;;;;;;12.07;10.85;;;;;;;25.92;67.54;100772.72;10585809;28;20487;-59
2021/07/04 11:46:17;;;;;;;10.10;9.20;;;;;;;24.93;59.64;100765.88;10585653;28;20047;-59
2021/07/04 11:51:22;;;;;;;11.05;8.35;;;;;;;25.81;59.53;100752.63;10584643;28;20048;-60
2021/07/04 11:56:25;;;;;;;11.02;9.93;;;;;;;25.21;61.73;100754.53;10584454;28;20044;-61
2021/07/04 12:01:27;;;;;;;14.32;12.85;;;;;;;24.45;60.07;100758.09;10585341;28;20062;-61
2021/07/04 12:06:29;;;;;;;10.95;9.85;;;;;;;24.82;62.82;100764.47;10584595;28;20047;-61
2021/07/04 12:11:54;;;;;;;11.60;10.57;;;;;;;24.71;66.48;100756.06;10585204;28;20043;-60
2021/07/04 12:16:59;;;;;;;13.18;11.68;;;;;;;24.62;63.89;100750.78;10582961;28;20138;-60
2021/07/04 12:22:03;;;;;;;11.80;10.70;;;;;;;25.26;64.98;100746.78;10583499;28;20051;-61
2021/07/04 12:27:05;;;;;;;11.50;10.43;;;;;;;24.69;64.46;100745.53;10583772;28;20051;-61
2021/07/04 12:32:08;;;;;;;12.73;11.52;;;;;;;24.21;63.02;100734.19;10583642;28;20050;-61
2021/07/04 12:37:10;;;;;;;12.90;11.60;;;;;;;23.39;65.44;100732.84;10582147;28;20044;-62
2021/07/04 12:42:28;;;;;;;11.85;10.75;;;;;;;23.45;68.32;100725.94;10584419;28;20097;-61
2021/07/04 12:47:30;;;;;;;11.27;10.25;;;;;;;23.84;66.95;100730.44;10581724;28;20479;-62
2021/07/04 12:52:34;;;;;;;11.85;10.85;;;;;;;23.52;68.23;100724.28;10582771;28;20047;-61
2021/07/04 12:57:39;;;;;;;14.15;11.20;;;;;;;23.69;70.38;100733.03;10564593;28;20086;-61
2021/07/04 13:02:46;;;;;;;13.70;11.15;;;;;;;23.83;68.07;100734.13;10582442;28;20093;-60
2021/07/04 13:07:48;;;;;;;14.13;12.60;;;;;;;23.52;70.44;100735.78;10582939;28;20065;-61
2021/07/04 13:12:51;;;;;;;13.00;11.70;;;;;;;23.48;68.96;100734.44;10582348;28;20062;-62
2021/07/04 13:17:53;;;;;;;14.20;11.65;;;;;;;23.53;68.98;100725.91;10582352;27;20048;-62
2021/07/04 13:22:57;;;;;;;13.57;12.20;;;;;;;22.99;69.14;100730.09;10582528;28;20043;-61
2021/07/04 13:28:15;;;;;;;12.07;10.93;;;;;;;23.02;69.01;100728.09;10581665;28;20048;-62
2021/07/04 13:33:35;;;;;;;13.57;12.23;;;;;;;23.13;65.33;100717.06;10581948;28;20513;-62
2021/07/04 13:38:37;;;;;;;14.27;12.90;;;;;;;22.81;67.21;100732.13;10581851;28;20085;-62
2021/07/04 13:43:40;;;;;;;14.73;13.23;;;;;;;22.66;72.30;100731.97;10580773;28;20043;-61
2021/07/04 13:48:42;;;;;;;13.45;11.82;;;;;;;21.94;71.29;100737.97;10581512;28;20054;-61
2021/07/04 13:53:44;;;;;;;14.27;12.85;;;;;;;21.94;76.49;100734.44;10581610;28;20399;-60
2021/07/04 13:58:46;;;;;;;12.00;10.85;;;;;;;22.06;77.60;100741.97;10581333;28;20484;-61
2021/07/04 14:03:49;;;;;;;14.20;12.85;;;;;;;21.75;77.16;100752.38;10581016;28;20517;-61
2021/07/04 14:08:51;;;;;;;15.57;12.55;;;;;;;21.68;78.32;100768.19;10580885;28;20089;-62
2021/07/04 14:13:53;;;;;;;12.45;5.68;;;;;;;19.98;71.66;100800.34;10580883;28;20067;-62
2021/07/04 14:18:56;;;;;;;11.10;3.60;;;;;;;19.25;74.93;100794.94;10580082;28;20043;-61
2021/07/04 14:23:58;;;;;;;3.58;2.75;;;;;;;18.93;76.44;100804.91;10580829;28;20051;-61
2021/07/04 14:29:00;;;;;;;6.30;2.13;;;;;;;19.07;75.08;100806.28;10580648;28;20043;-62
2021/07/04 14:34:04;;;;;;;5.20;1.67;;;;;;;18.84;75.85;100810.22;10579613;28;20051;-60
2021/07/04 14:39:09;;;;;;;3.25;1.17;;;;;;;18.08;79.16;100811.72;10586183;28;20407;-61
2021/07/04 14:44:12;;;;;;;1.67;0.95;;;;;;;18.13;77.32;100809.47;10586974;28;20047;-63
2021/07/04 14:49:14;;;;;;;3.08;0.90;;;;;;;18.31;77.29;100814.97;10588461;28;20048;-62
2021/07/04 14:54:17;;;;;;;1.20;1.00;;;;;;;17.95;79.94;100809.31;10587719;28;20047;-61
2021/07/04 14:59:20;;;;;;;1.67;1.00;;;;;;;18.57;76.83;100809.09;10587523;28;20048;-61
2021/07/04 15:04:22;;;;;;;3.28;1.00;;;;;;;18.34;78.26;100801.44;10586252;28;20043;-61
2021/07/04 15:09:25;;;;;;;1.30;0.80;;;;;;;18.49;78.49;100807.16;10587150;28;20054;-62
2021/07/04 15:14:27;;;;;;;2.50;0.90;;;;;;;18.40;77.81;100807.16;10585893;28;20052;-61
2021/07/04 15:19:30;;;;;;;1.88;0.95;;;;;;;17.82;82.60;100798.94;10586646;28;20400;-60
2021/07/04 15:24:32;;;;;;;2.42;0.98;;;;;;;17.73;83.50;100798.91;10587190;28;20050;-63
2021/07/04 15:29:34;;;;;;;1.45;0.90;;;;;;;17.83;82.76;100797.13;10586378;28;20043;-62
2021/07/04 15:34:37;;;;;;;2.65;1.38;;;;;;;17.91;81.90;100793.84;10586131;28;20066;-60
2021/07/04 15:39:39;;;;;;;5.60;1.23;;;;;;;18.26;82.13;100796.00;10584333;28;20471;-61
2021/07/04 15:44:41;;;;;;;3.75;1.33;;;;;;;18.08;83.21;100781.75;10586118;28;20052;-60
2021/07/04 15:49:45;;;;;;;2.90;1.45;;;;;;;17.77;82.59;100771.16;10583781;28;20044;-62
2021/07/04 15:54:47;;;;;;;2.53;1.70;;;;;;;17.55;83.67;100766.94;10585578;28;20051;-60
2021/07/04 15:59:49;;;;;;;2.33;1.70;;;;;;;18.16;82.48;100758.88;10583959;28;20059;-61
2021/07/04 16:04:52;;;;;;;2.38;1.40;;;;;;;17.92;83.19;100751.31;10584248;28;20047;-60
2021/07/04 16:10:16;;;;;;;3.35;1.10;;;;;;;17.48;83.26;100757.84;10585123;28;20104;-61
2021/07/04 16:15:19;;;;;;;2.25;1.60;;;;;;;17.93;81.55;100763.56;10584936;28;20069;-61
2021/07/04 16:20:21;;;;;;;6.47;2.08;;;;;;;18.43;81.13;100772.44;10584254;28;20479;-62
2021/07/04 16:25:24;;;;;;;4.63;1.55;;;;;;;18.05;81.39;100774.88;10583804;28;20525;-61
2021/07/04 16:30:29;;;;;;;2.08;1.88;;;;;;;18.45;81.81;100773.94;10583183;28;20130;-60
2021/07/04 16:35:32;;;;;;;2.22;1.85;;;;;;;18.29;81.86;100785.13;10582537;28;20051;-61
2021/07/04 16:40:34;;;;;;;4.30;2.40;;;;;;;18.71;82.57;100776.88;10583840;28;20051;-60
2021/07/04 16:45:36;;;;;;;1.50;1.40;;;;;;;18.72;82.22;100767.91;10582010;28;20517;-60
2021/07/04 16:50:39;;;;;;;3.10;1.80;;;;;;;18.62;81.92;100771.56;10583573;28;20396;-60
2021/07/04 16:55:41;;;;;;;2.42;1.85;;;;;;;18.55;81.02;100779.25;10581932;28;20075;-60
2021/07/04 17:00:44;;;;;;;2.97;1.25;;;;;;;18.45;82.00;100783.72;10581864;28;20053;-61
2021/07/04 17:05:46;;;;;;;2.20;1.40;;;;;;;18.35;82.37;100776.59;10581041;28;20048;-61
2021/07/04 17:10:49;;;;;;;1.95;1.48;;;;;;;18.38;82.84;100780.78;10582226;28;20399;-60
2021/07/04 17:15:52;;;;;;;2.60;1.30;;;;;;;18.43;83.39;100770.59;10582935;28;20411;-60
2021/07/04 17:20:55;;;;;;;3.10;1.45;;;;;;;18.65;82.33;100774.78;10582214;28;20073;-60
2021/07/04 17:25:57;;;;;;;2.38;1.70;;;;;;;18.34;82.26;100793.50;10581825;28;20510;-60
2021/07/04 17:30:59;;;;;;;5.45;2.33;;;;;;;18.22;82.63;100805.16;10582140;28;20047;-60
2021/07/04 17:36:02;;;;;;;5.07;1.73;;;;;;;18.70;81.49;100803.53;10581664;28;20381;-60
2021/07/04 17:41:04;;;;;;;3.03;1.60;;;;;;;18.55;79.49;100805.75;10581885;28;20056;-60
2021/07/04 17:46:07;;;;;;;2.78;1.73;;;;;;;18.33;82.72;100802.41;10581974;28;20044;-60
2021/07/04 17:51:13;;;;;;;2.22;1.92;;;;;;;18.44;82.35;100805.88;10581889;28;20056;-60
2021/07/04 17:56:15;;;;;;;2.75;2.40;;;;;;;18.11;82.57;100798.19;10581284;28;20048;-60
2021/07/04 18:01:18;;;;;;;4.97;3.47;;;;;;;18.01;82.27;100800.81;10581729;28;20043;-60
2021/07/04 18:06:22;;;;;;;4.72;3.22;;;;;;;17.96;83.39;100804.88;10580248;28;20039;-61
2021/07/04 18:11:26;;;;;;;2.95;2.75;;;;;;;18.22;83.49;100804.34;10582884;28;20506;-60
2021/07/04 18:16:28;;;;;;;3.28;2.92;;;;;;;17.93;83.34;100807.78;10587626;28;20094;-59
2021/07/04 18:21:31;;;;;;;3.00;2.80;;;;;;;18.04;83.71;100814.75;10589240;28;20071;-60
2021/07/04 18:26:33;;;;;;;4.10;3.75;;;;;;;17.79;84.68;100816.91;10588830;28;20062;-60
2021/07/04 18:31:36;;;;;;;5.95;4.38;;;;;;;17.71;85.11;100816.75;10588711;28;20051;-60
2021/07/04 18:36:39;;;;;;;5.03;4.15;;;;;;;17.72;84.35;100808.66;10588671;28;20058;-60
2021/07/04 18:41:42;;;;;;;4.68;4.32;;;;;;;17.58;85.04;100817.78;10588376;28;20501;-60
2021/07/04 18:46:44;;;;;;;7.30;4.18;;;;;;;17.48;85.74;100814.25;10587866;28;20054;-60
2021/07/04 18:51:47;;;;;;;5.28;4.40;;;;;;;17.42;85.99;100814.81;10587294;28;20044;-60
2021/07/04 18:56:49;;;;;;;5.45;4.93;;;;;;;17.30;85.48;100823.78;10587821;28;20051;-60
2021/07/04 19:01:52;;;;;;;6.22;5.63;;;;;;;17.49;84.84;100810.66;10588013;28;20039;-60
2021/07/04 19:06:54;;;;;;;6.88;6.20;;;;;;;17.27;86.58;100824.91;10587285;28;20058;-60
2021/07/04 19:11:57;;;;;;;8.32;7.18;;;;;;;17.41;86.16;100827.19;10587352;28;20055;-60
2021/07/04 19:17:00;;;;;;;8.18;5.70;;;;;;;17.42;85.65;100836.00;10587479;28;20146;-60
2021/07/04 19:22:04;;;;;;;6.47;5.88;;;;;;;17.21;86.66;100828.88;10586358;28;20044;-60
2021/07/04 19:27:07;;;;;;;9.45;8.52;;;;;;;17.23;84.77;100829.63;10584817;28;20043;-60
2021/07/04 19:32:09;;;;;;;9.10;8.07;;;;;;;17.34;86.67;100833.97;10586363;28;20062;-60
2021/07/04 19:37:12;;;;;;;9.80;8.68;;;;;;;17.37;85.93;100839.03;10586213;28;20112;-60
2021/07/04 19:42:15;;;;;;;8.82;8.02;;;;;;;17.22;87.46;100840.34;10585938;28;20056;-60
2021/07/04 19:47:17;;;;;;;8.25;7.47;;;;;;;17.31;85.58;100841.34;10586142;28;20047;-60
2021/07/04 19:52:20;;;;;;;18.00;10.50;;;;;;;17.29;84.34;100841.47;10585784;28;20047;-60
2021/07/04 19:57:24;;;;;;;13.02;11.73;;;;;;;17.31;85.35;100836.88;10585205;28;20101;-60
2021/07/04 20:02:27;;;;;;;16.70;13.15;;;;;;;17.11;85.85;100851.81;10585005;28;20487;-60
2021/07/04 20:07:30;;;;;;;15.23;10.68;;;;;;;17.26;85.64;100837.31;10584777;28;20477;-60
2021/07/04 20:12:32;;;;;;;14.05;11.38;;;;;;;17.01;85.75;100842.97;10584705;28;20043;-60
2021/07/04 20:17:35;;;;;;;9.32;8.35;;;;;;;17.12;85.31;100845.56;10584455;28;20091;-60
2021/07/04 20:22:37;;;;;;;14.00;11.13;;;;;;;16.80;85.96;100856.16;10582773;28;20051;-60
2021/07/04 20:27:40;;;;;;;13.82;12.38;;;;;;;16.83;86.30;100869.13;10583891;28;20047;-60
2021/07/04 20:32:43;;;;;;;16.98;12.45;;;;;;;16.62;87.39;100863.78;10583842;28;20039;-60
2021/07/04 20:37:47;;;;;;;15.27;13.68;;;;;;;16.77;87.73;100864.34;10583911;28;20051;-61
2021/07/04 20:42:50;;;;;;;16.40;14.80;;;;;;;16.73;87.76;100863.75;10583687;28;20044;-61
2021/07/04 20:47:53;;;;;;;22.05;17.77;;;;;;;16.64;87.39;100861.84;10583427;28;20491;-60
2021/07/04 20:52:55;;;;;;;16.95;14.85;;;;;;;16.58;87.27;100850.00;10581697;28;20050;-60
2021/07/04 20:57:58;;;;;;;20.67;16.25;;;;;;;16.40;88.19;100854.97;10582763;28;20051;-60
2021/07/04 21:03:00;;;;;;;17.92;14.23;;;;;;;16.21;88.45;100863.53;10582583;28;20040;-61
2021/07/04 21:08:03;;;;;;;20.73;15.30;;;;;;;16.20;88.45;100856.56;10581164;28;20061;-59
2021/07/04 21:13:06;;;;;;;13.27;11.95;;;;;;;16.15;87.96;100849.03;10581577;28;20046;-60
2021/07/04 21:18:09;;;;;;;22.13;17.27;;;;;;;15.94;87.94;100854.22;10581139;28;20048;-60
2021/07/04 21:23:13;;;;;;;21.15;15.77;;;;;;;15.76;88.84;100863.56;10582008;28;20044;-60
2021/07/04 21:28:15;;;;;;;16.55;14.18;;;;;;;15.86;88.83;100863.69;10581727;28;20418;-60
2021/07/04 21:33:18;;;;;;;21.92;17.55;;;;;;;15.58;89.01;100864.03;10581120;28;20043;-61
2021/07/04 21:38:20;;;;;;;17.35;13.50;;;;;;;15.54;88.88;100873.13;10581688;28;20395;-60
2021/07/04 21:43:24;;;;;;;15.30;13.75;;;;;;;15.53;88.84;100866.19;10582043;28;20043;-60
2021/07/04 21:48:26;;;;;;;15.50;13.73;;;;;;;15.42;88.79;100877.56;10586532;28;20512;-60
2021/07/04 21:53:29;;;;;;;19.13;14.27;;;;;;;15.35;88.56;100886.91;10590498;28;20054;-60
2021/07/04 21:58:31;;;;;;;21.48;16.23;;;;;;;15.23;89.32;100887.81;10589879;28;20048;-60
2021/07/04 22:03:34;;;;;;;22.05;15.27;;;;;;;15.24;89.23;100886.88;10590054;28;20043;-60
2021/07/04 22:08:36;;;;;;;15.80;12.65;;;;;;;15.13;88.49;100877.13;10589473;28;20051;-60
2021/07/04 22:13:39;;;;;;;17.08;12.85;;;;;;;15.04;88.93;100868.09;10588372;28;20059;-59
2021/07/04 22:18:42;;;;;;;14.00;12.18;;;;;;;14.98;88.98;100875.66;10589311;28;20122;-60
2021/07/04 22:23:44;;;;;;;21.10;16.00;;;;;;;15.01;88.86;100870.13;10589441;28;20054;-60
2021/07/04 22:28:47;;;;;;;19.20;15.15;;;;;;;14.97;89.12;100866.88;10588703;28;20054;-59
2021/07/04 22:33:49;;;;;;;31.85;21.80;;;;;;;15.01;90.14;100863.09;10589025;28;20043;-59
2021/07/04 22:38:51;;;;;;;33.17;22.40;;;;;;;14.93;90.60;100862.81;10588731;28;20051;-60
2021/07/04 22:43:53;;;;;;;49.97;23.63;;;;;;;15.11;90.15;100857.94;10588582;28;20483;-59
2021/07/04 22:48:56;;;;;;;124.38;34.42;;;;;;;15.07;91.30;100860.94;10587902;28;20051;-59
2021/07/04 22:53:58;;;;;;;116.75;30.70;;;;;;;15.11;91.75;100862.38;10587768;28;20510;-60